createdAt,value
2018-10-03T00:01:53.088Z,99.30
2018-10-03T00:05:57.304Z,99.10
2018-10-03T00:10:01.432Z,99.20
2018-10-03T00:14:06.014Z,99.10
2018-10-03T00:18:10.164Z,99.00
2018-10-03T00:22:15.353Z,98.60
2018-10-03T00:26:19.503Z,98.40
2018-10-03T00:30:23.617Z,98.40
2018-10-03T00:34:27.712Z,98.40
2018-10-03T00:38:31.912Z,98.30
2018-10-03T00:42:35.970Z,98.30
2018-10-03T00:46:40.167Z,98.30
2018-10-03T00:50:44.310Z,98.40
2018-10-03T00:54:48.727Z,98.20
2018-10-03T00:58:54.347Z,98.00
2018-10-03T01:02:58.470Z,97.80
2018-10-03T01:07:02.676Z,97.50
2018-10-03T01:11:06.707Z,97.20
2018-10-03T01:15:10.876Z,97.20
2018-10-03T01:19:15.105Z,97.30
2018-10-03T01:23:19.164Z,97.40
2018-10-03T01:27:23.273Z,97.50
2018-10-03T01:31:27.785Z,97.60
2018-10-03T01:35:31.850Z,97.70
2018-10-03T01:39:35.887Z,97.60
2018-10-03T01:43:40.157Z,97.60
2018-10-03T01:47:44.304Z,97.50
2018-10-03T01:51:48.371Z,97.50
2018-10-03T01:55:52.566Z,97.80
2018-10-03T01:59:56.830Z,97.40
2018-10-03T02:04:00.959Z,97.20
2018-10-03T02:08:05.452Z,97.20
2018-10-03T02:12:09.496Z,97.00
2018-10-03T02:16:13.817Z,96.90
2018-10-03T02:20:17.868Z,97.00
2018-10-03T02:24:22.076Z,97.10
2018-10-03T02:28:26.138Z,97.60
2018-10-03T02:32:30.503Z,97.40
2018-10-03T02:36:34.536Z,97.40
2018-10-03T02:40:38.639Z,97.50
2018-10-03T02:44:42.758Z,97.50
2018-10-03T02:48:46.773Z,97.40
2018-10-03T02:52:50.918Z,97.40
2018-10-03T02:56:55.387Z,97.80
2018-10-03T03:00:59.426Z,97.40
2018-10-03T03:05:03.527Z,97.40
2018-10-03T03:09:11.014Z,97.40
2018-10-03T03:13:15.121Z,97.40
2018-10-03T03:17:19.316Z,97.50
2018-10-03T03:21:23.499Z,97.60
2018-10-03T03:25:27.885Z,97.60
2018-10-03T03:29:32.407Z,97.60
2018-10-03T03:33:36.677Z,97.50
2018-10-03T03:37:40.866Z,97.20
2018-10-03T03:41:45.172Z,97.20
2018-10-03T03:45:49.327Z,96.80
2018-10-03T03:49:53.668Z,96.60
2018-10-03T03:53:57.943Z,96.40
2018-10-03T03:58:02.269Z,96.10
2018-10-03T04:02:06.365Z,96.10
2018-10-03T04:06:10.834Z,95.80
2018-10-03T04:10:15.171Z,95.90
2018-10-03T04:14:19.344Z,96.00
2018-10-03T04:18:24.060Z,95.90
2018-10-03T04:22:29.067Z,95.90
2018-10-03T04:26:33.870Z,96.00
2018-10-03T04:30:38.008Z,95.80
2018-10-03T04:34:42.199Z,95.60
2018-10-03T04:38:46.468Z,95.60
2018-10-03T04:42:52.601Z,95.40
2018-10-03T04:46:57.967Z,95.30
2018-10-03T04:51:02.214Z,95.30
2018-10-03T04:55:06.651Z,95.30
2018-10-03T04:59:10.944Z,95.50
2018-10-03T05:03:15.299Z,95.60
2018-10-03T05:07:19.427Z,95.70
2018-10-03T05:11:24.006Z,96.00
2018-10-03T05:15:28.170Z,96.10
2018-10-03T05:19:32.796Z,95.90
2018-10-03T05:23:37.048Z,95.90
2018-10-03T05:27:41.194Z,95.80
2018-10-03T05:31:45.279Z,95.80
2018-10-03T05:35:49.416Z,95.80
2018-10-03T05:39:53.610Z,95.70
2018-10-03T05:43:57.661Z,95.70
2018-10-03T05:48:01.845Z,95.80
2018-10-03T05:52:05.895Z,95.90
2018-10-03T05:56:10.712Z,95.90
2018-10-03T06:00:15.802Z,96.00
2018-10-03T06:04:19.947Z,96.00
2018-10-03T06:08:24.233Z,96.00
2018-10-03T06:12:28.331Z,95.90
2018-10-03T06:16:32.449Z,95.80
2018-10-03T06:20:37.532Z,95.70
2018-10-03T06:24:41.834Z,95.50
2018-10-03T06:28:46.620Z,95.20
2018-10-03T06:32:51.290Z,95.30
2018-10-03T06:36:55.376Z,95.20
2018-10-03T06:40:59.512Z,95.50
2018-10-03T06:45:03.686Z,95.20
2018-10-03T06:49:08.881Z,95.20
2018-10-03T06:53:13.279Z,95.60
2018-10-03T06:57:17.348Z,95.40
2018-10-03T07:01:21.593Z,95.30
2018-10-03T07:05:25.832Z,95.20
2018-10-03T07:09:30.077Z,95.00
2018-10-03T07:13:34.176Z,94.50
2018-10-03T07:17:38.625Z,94.60
2018-10-03T07:21:42.771Z,94.20
2018-10-03T07:25:46.933Z,93.70
2018-10-03T07:29:50.989Z,93.30
2018-10-03T07:33:55.031Z,93.00
2018-10-03T07:37:59.073Z,92.40
2018-10-03T07:42:03.440Z,91.90
2018-10-03T07:46:08.059Z,91.20
2018-10-03T07:50:12.259Z,90.90
2018-10-03T07:54:16.323Z,90.40
2018-10-03T07:58:20.598Z,90.40
2018-10-03T08:02:24.749Z,90.50
2018-10-03T08:06:29.783Z,90.10
2018-10-03T08:10:34.345Z,88.80
2018-10-03T08:14:38.556Z,88.80
2018-10-03T08:18:42.709Z,87.50
2018-10-03T08:22:46.933Z,86.90
2018-10-03T08:26:51.091Z,86.80
2018-10-03T08:30:55.408Z,86.50
2018-10-03T08:35:00.786Z,85.80
2018-10-03T08:39:08.025Z,86.60
2018-10-03T08:43:12.356Z,86.10
2018-10-03T08:47:16.463Z,84.70
2018-10-03T08:51:20.580Z,81.60
2018-10-03T08:55:24.711Z,77.60
2018-10-03T08:59:28.861Z,70.90
2018-10-03T09:03:33.406Z,65.70
2018-10-03T09:07:37.780Z,63.70
2018-10-03T09:11:41.974Z,61.00
2018-10-03T09:15:46.046Z,62.30
2018-10-03T09:19:50.163Z,62.90
2018-10-03T09:23:54.282Z,63.20
2018-10-03T09:27:58.444Z,62.70
2018-10-03T09:32:02.619Z,61.70
2018-10-03T09:36:07.017Z,62.20
2018-10-03T09:40:11.236Z,62.90
2018-10-03T09:44:15.585Z,62.00
2018-10-03T09:48:20.176Z,60.00
2018-10-03T09:52:24.356Z,57.30
2018-10-03T09:56:28.479Z,54.70
2018-10-03T10:00:39.630Z,55.00
2018-10-03T10:04:43.835Z,57.40
2018-10-03T10:08:48.073Z,61.60
2018-10-03T10:12:52.388Z,65.70
2018-10-03T10:16:56.699Z,66.00
2018-10-03T10:21:00.971Z,66.10
2018-10-03T10:25:05.401Z,68.00
2018-10-03T10:29:09.511Z,70.80
2018-10-03T10:33:14.619Z,74.00
2018-10-03T10:37:18.710Z,75.00
2018-10-03T10:41:22.961Z,76.20
2018-10-03T10:45:26.924Z,76.70
2018-10-03T10:49:30.983Z,77.70
2018-10-03T10:53:35.196Z,78.30
2018-10-03T10:57:39.414Z,78.60
2018-10-03T11:01:43.781Z,79.30
2018-10-03T11:05:48.119Z,79.10
2018-10-03T11:09:52.272Z,77.00
2018-10-03T11:13:56.352Z,76.50
2018-10-03T11:18:00.670Z,76.30
2018-10-03T11:22:04.811Z,77.90
2018-10-03T11:26:08.870Z,77.90
2018-10-03T11:30:12.959Z,78.20
2018-10-03T11:34:17.129Z,79.10
2018-10-03T11:38:21.731Z,81.10
2018-10-03T11:42:25.724Z,81.00
2018-10-03T11:46:29.784Z,81.60
2018-10-03T11:50:33.940Z,81.40
2018-10-03T11:54:38.040Z,82.30
2018-10-03T11:58:42.114Z,82.60
2018-10-03T12:02:46.397Z,83.30
2018-10-03T12:06:50.383Z,83.70
2018-10-03T12:10:54.441Z,84.00
2018-10-03T12:14:58.491Z,84.20
2018-10-03T12:19:02.623Z,85.00
2018-10-03T12:23:06.783Z,85.00
2018-10-03T12:27:10.879Z,85.00
2018-10-03T12:31:15.125Z,85.30
2018-10-03T12:35:24.622Z,85.90
2018-10-03T12:39:28.831Z,86.10
2018-10-03T12:43:33.098Z,86.10
2018-10-03T12:47:37.207Z,85.60
2018-10-03T12:51:41.353Z,85.50
2018-10-03T12:55:45.584Z,84.80
2018-10-03T12:59:49.709Z,84.90
2018-10-03T13:03:53.767Z,84.50
2018-10-03T13:07:58.479Z,84.90
2018-10-03T13:12:02.609Z,83.30
2018-10-03T13:16:06.831Z,83.60
2018-10-03T13:20:10.885Z,83.60
2018-10-03T13:24:15.489Z,82.90
2018-10-03T13:28:19.587Z,82.90
2018-10-03T13:32:23.639Z,83.10
2018-10-03T13:36:27.796Z,84.50
2018-10-03T13:40:31.827Z,85.40
2018-10-03T13:44:35.912Z,87.00
2018-10-03T13:48:40.108Z,89.10
2018-10-03T13:52:44.832Z,90.10
2018-10-03T13:56:49.524Z,90.40
2018-10-03T14:00:53.655Z,90.60
2018-10-03T14:04:57.886Z,90.70
2018-10-03T14:09:01.952Z,90.50
2018-10-03T14:13:06.126Z,90.40
2018-10-03T14:17:10.344Z,90.30
2018-10-03T14:21:14.507Z,90.30
2018-10-03T14:25:18.704Z,90.20
2018-10-03T14:29:22.778Z,90.30
2018-10-03T14:33:26.885Z,90.00
2018-10-03T14:37:30.977Z,89.70
2018-10-03T14:41:35.123Z,89.70
2018-10-03T14:45:39.159Z,90.00
2018-10-03T14:49:43.332Z,90.10
2018-10-03T14:53:47.846Z,90.20
2018-10-03T14:57:51.899Z,90.00
2018-10-03T15:01:56.103Z,90.10
2018-10-03T15:06:00.207Z,90.10
2018-10-03T15:10:04.388Z,90.30
2018-10-03T15:14:08.456Z,90.00
2018-10-03T15:18:12.727Z,90.30
2018-10-03T15:22:16.916Z,90.40
2018-10-03T15:26:21.030Z,90.50
2018-10-03T15:30:25.107Z,90.70
2018-10-03T15:34:29.179Z,90.60
2018-10-03T15:38:33.362Z,90.70
2018-10-03T15:42:37.434Z,90.70
2018-10-03T15:46:41.747Z,90.80
2018-10-03T15:50:46.417Z,91.20
2018-10-03T15:54:50.644Z,91.20
2018-10-03T15:58:54.762Z,91.50
2018-10-03T16:02:59.267Z,92.10
2018-10-03T16:07:03.383Z,92.20
2018-10-03T16:11:07.461Z,92.40
2018-10-03T16:15:11.712Z,92.40
2018-10-03T16:19:16.200Z,92.40
2018-10-03T16:23:20.311Z,92.40
2018-10-03T16:27:24.932Z,92.50
2018-10-03T16:31:29.051Z,92.60
2018-10-03T16:35:33.135Z,92.70
2018-10-03T16:39:37.476Z,92.80
2018-10-03T16:43:41.641Z,92.80
2018-10-03T20:08:07.760Z,99.10
2018-10-03T20:12:12.078Z,98.60
2018-10-03T20:16:16.518Z,98.80
2018-10-03T20:20:21.425Z,98.90
2018-10-03T20:24:25.588Z,98.90
2018-10-03T20:28:29.869Z,99.10
2018-10-03T20:32:35.415Z,99.70
2018-10-03T20:36:39.731Z,99.90
2018-10-03T20:40:44.412Z,99.90
2018-10-03T20:44:49.477Z,99.90
2018-10-03T20:48:53.711Z,99.90
2018-10-03T20:52:57.941Z,99.90
2018-10-03T20:57:02.056Z,99.90
2018-10-03T21:01:06.244Z,99.90
2018-10-03T21:05:10.374Z,99.90
2018-10-03T21:09:15.969Z,99.90
2018-10-03T21:13:20.213Z,99.90
2018-10-03T21:17:24.557Z,99.90
2018-10-03T21:21:28.655Z,99.90
2018-10-03T21:25:32.837Z,99.90
2018-10-03T21:29:37.111Z,99.90
2018-10-03T21:33:41.216Z,99.90
2018-10-03T21:37:45.490Z,99.90
2018-10-03T21:41:49.847Z,99.90
2018-10-03T21:45:53.903Z,99.90
2018-10-03T21:49:57.960Z,99.90
2018-10-03T21:54:02.139Z,99.90
2018-10-03T21:58:06.314Z,99.90
2018-10-03T22:02:10.424Z,99.90
2018-10-03T22:06:14.856Z,99.90
2018-10-03T22:10:19.121Z,99.90
2018-10-03T22:14:23.225Z,99.90
2018-10-03T22:18:27.475Z,99.90
2018-10-03T22:22:31.712Z,99.90
2018-10-03T22:26:35.803Z,99.90
2018-10-03T22:30:39.927Z,99.90
2018-10-03T22:34:44.104Z,99.90
2018-10-03T22:38:48.657Z,99.90
2018-10-03T22:42:52.772Z,99.90
2018-10-03T22:46:56.875Z,99.90
2018-10-03T22:51:01.300Z,99.90
2018-10-03T22:55:05.864Z,99.90
2018-10-03T22:59:09.981Z,99.90
2018-10-03T23:03:14.172Z,99.90
2018-10-03T23:07:19.211Z,99.90
2018-10-03T23:11:23.719Z,99.90
2018-10-03T23:15:27.908Z,99.90
2018-10-03T23:19:48.743Z,99.90
2018-10-03T23:23:53.802Z,99.90
2018-10-03T23:27:57.939Z,99.90
2018-10-03T23:32:02.189Z,99.90
2018-10-03T23:36:06.417Z,99.90
2018-10-03T23:40:10.895Z,99.90
2018-10-03T23:44:15.845Z,99.90
2018-10-03T23:48:20.453Z,99.90
2018-10-03T23:52:25.251Z,99.90
2018-10-03T23:56:29.537Z,99.90
